Time;durP1;ratioP1;P1;durP2;ratioP2;P2;SDS_P1;SDS_P2;PMS_P1;PMS_P2;Temp;Humidity;BMP_temperature;BMP_pressure;BME280_temperature;BME280_humidity;BME280_pressure;Samples;Min_cycle;Max_cycle;Signal;HPM_P1;HPM_P2
2022/03/31 00:00:40;;;;;;;71.22;37.90;;;;;;;2.72;100.00;99103.63;1790609;80;21013;-68
2022/03/31 00:03:13;;;;;;;60.00;34.00;;;;;;;3.06;100.00;99093.79;1790678;80;21076;-68
2022/03/31 00:05:42;;;;;;;55.98;29.50;;;;;;;3.06;100.00;99093.79;1790585;80;21496;-67
2022/03/31 00:08:10;;;;;;;64.30;34.53;;;;;;;3.18;100.00;99091.80;1790508;80;21862;-68
2022/03/31 00:10:49;;;;;;;53.38;32.08;;;;;;;3.42;100.00;99093.79;1790995;80;21060;-68
2022/03/31 00:13:20;;;;;;;55.78;29.98;;;;;;;3.44;100.00;99102.42;1790595;80;21119;-70
2022/03/31 00:15:48;;;;;;;64.22;35.48;;;;;;;3.51;100.00;99103.97;1790327;80;21012;-68
2022/03/31 00:18:16;;;;;;;61.53;33.60;;;;;;;3.58;100.00;99102.92;1790603;80;21016;-69
2022/03/31 00:32:44;;;;;;;134.47;51.18;;;;;;;3.63;100.00;99079.37;1779549;80;21020;-69
2022/03/31 00:35:12;;;;;;;127.85;49.18;;;;;;;3.61;100.00;99082.91;1779392;80;21233;-68
2022/03/31 00:37:43;;;;;;;108.40;45.98;;;;;;;3.52;100.00;99083.58;1778821;80;21519;-69
2022/03/31 00:40:15;;;;;;;129.63;51.77;;;;;;;3.62;100.00;99084.64;1779012;80;21017;-69
2022/03/31 00:42:47;;;;;;;115.73;46.83;;;;;;;3.62;100.00;99095.06;1779017;80;21537;-68
2022/03/31 00:45:18;;;;;;;155.40;56.85;;;;;;;3.60;100.00;99088.58;1778846;80;21375;-69
2022/03/31 00:47:46;;;;;;;;;;;;;;;3.58;100.00;99089.91;1781605;80;21044;-68
2022/03/31 00:50:13;;;;;;;145.28;54.65;;;;;;;3.57;100.00;99079.10;1765725;80;21221;-69
2022/03/31 00:52:41;;;;;;;148.90;51.40;;;;;;;3.51;100.00;99070.59;1747684;82;21029;-69
2022/03/31 00:55:11;;;;;;;123.10;48.45;;;;;;;3.51;100.00;99079.70;1748164;82;21057;-69
2022/03/31 00:57:38;;;;;;;110.30;45.27;;;;;;;3.53;100.00;99081.36;1747920;82;21005;-69
2022/03/31 01:00:07;;;;;;;92.40;42.45;;;;;;;3.54;100.00;99084.39;1748234;82;21881;-70
2022/03/31 01:02:37;;;;;;;85.13;40.47;;;;;;;3.51;100.00;99087.51;1748245;82;21964;-70
2022/03/31 01:05:08;;;;;;;90.17;40.98;;;;;;;3.53;100.00;99096.98;1748254;82;21886;-69
2022/03/31 01:07:37;;;;;;;80.12;39.45;;;;;;;3.60;100.00;99094.23;1747977;82;21036;-69
2022/03/31 01:10:07;;;;;;;93.37;42.45;;;;;;;3.48;100.00;99093.64;1748059;82;21036;-69
2022/03/31 01:12:35;;;;;;;84.42;40.03;;;;;;;3.64;100.00;99091.97;1748013;82;21029;-69
2022/03/31 01:15:17;;;;;;;84.87;39.20;;;;;;;3.61;100.00;99084.22;1747867;82;21141;-69
2022/03/31 01:17:47;;;;;;;74.20;34.90;;;;;;;3.64;100.00;99086.77;1747974;82;21013;-69
2022/03/31 01:20:20;;;;;;;102.58;40.00;;;;;;;3.64;100.00;99078.95;1748618;82;21001;-68
2022/03/31 01:22:50;;;;;;;88.80;42.45;;;;;;;3.70;100.00;99084.83;1747989;82;21072;-67
2022/03/31 01:25:18;;;;;;;98.42;44.50;;;;;;;3.70;100.00;99084.83;1748154;81;21088;-70
2022/03/31 01:27:46;;;;;;;87.17;40.95;;;;;;;3.71;100.00;99084.41;1748061;82;22065;-69
2022/03/31 01:30:17;;;;;;;97.45;44.73;;;;;;;3.70;100.00;99074.87;1748380;82;21071;-69
2022/03/31 01:32:45;;;;;;;95.20;44.00;;;;;;;3.68;100.00;99078.84;1748012;82;21064;-69
2022/03/31 01:35:13;;;;;;;124.35;53.28;;;;;;;3.68;100.00;99084.47;1748300;82;21044;-69
2022/03/31 01:37:40;;;;;;;137.18;57.30;;;;;;;3.68;100.00;99081.44;1747837;82;21036;-69
2022/03/31 01:40:08;;;;;;;150.72;55.70;;;;;;;3.65;100.00;99074.14;1747891;82;21501;-68
2022/03/31 01:42:35;;;;;;;164.37;59.65;;;;;;;3.60;100.00;99070.81;1747779;82;21506;-69
2022/03/31 01:45:03;;;;;;;140.57;57.98;;;;;;;3.53;100.00;99080.06;1747893;82;21049;-68
2022/03/31 01:47:30;;;;;;;158.15;60.95;;;;;;;3.49;100.00;99077.13;1747884;82;21513;-70
2022/03/31 01:49:57;;;;;;;153.05;56.55;;;;;;;3.51;100.00;99067.53;1758204;80;21060;-68
2022/03/31 01:52:24;;;;;;;161.40;58.10;;;;;;;3.51;100.00;99062.32;1778984;80;21822;-68
2022/03/31 01:54:51;;;;;;;141.80;55.95;;;;;;;3.47;100.00;99060.69;1778823;80;21000;-68
2022/03/31 01:57:18;;;;;;;142.55;54.15;;;;;;;3.49;100.00;99050.24;1779036;80;21037;-69
2022/03/31 01:59:44;;;;;;;133.45;50.38;;;;;;;3.42;100.00;99052.14;1778906;80;21073;-68
2022/03/31 02:02:13;;;;;;;145.80;53.87;;;;;;;3.46;100.00;99051.63;1779016;80;21064;-68
2022/03/31 02:04:41;;;;;;;121.62;48.48;;;;;;;3.42;100.00;99046.09;1778856;80;21080;-69
2022/03/31 02:07:11;;;;;;;124.70;48.20;;;;;;;3.45;100.00;99052.09;1778878;80;21068;-69
2022/03/31 02:09:38;;;;;;;88.70;41.50;;;;;;;3.54;100.00;99056.18;1778620;80;21009;-69
2022/03/31 02:12:07;;;;;;;99.32;43.75;;;;;;;3.54;100.00;99051.86;1778732;80;21048;-69
2022/03/31 02:14:37;;;;;;;97.25;44.38;;;;;;;3.54;100.00;99055.76;1778820;80;21071;-68
2022/03/31 02:17:06;;;;;;;90.50;40.30;;;;;;;3.52;100.00;99039.32;1779019;80;21137;-67
2022/03/31 02:19:35;;;;;;;69.40;35.80;;;;;;;3.54;100.00;99038.84;1778833;80;21662;-67
2022/03/31 02:22:03;;;;;;;71.77;36.13;;;;;;;3.61;100.00;99026.48;1778594;80;21029;-69
2022/03/31 02:24:30;;;;;;;65.05;33.90;;;;;;;3.63;100.00;99029.06;1778474;80;21049;-68
2022/03/31 02:26:57;;;;;;;62.78;33.70;;;;;;;3.61;100.00;99023.03;1778491;80;22085;-68
2022/03/31 02:29:26;;;;;;;64.95;32.75;;;;;;;3.57;100.00;99020.52;1778777;80;21053;-68
2022/03/31 02:31:52;;;;;;;60.38;31.93;;;;;;;3.57;100.00;99016.62;1778734;80;21033;-70
2022/03/31 02:34:20;;;;;;;60.73;33.40;;;;;;;3.53;100.00;99005.88;1778766;80;21044;-68
2022/03/31 02:36:48;;;;;;;60.55;33.95;;;;;;;3.63;100.00;98997.81;1778529;80;21466;-69
2022/03/31 02:39:15;;;;;;;78.90;36.83;;;;;;;3.61;100.00;98990.03;1778721;80;21516;-69
2022/03/31 02:41:42;;;;;;;78.67;39.35;;;;;;;3.64;100.00;98983.92;1778758;80;21108;-68
2022/03/31 02:44:10;;;;;;;99.07;41.77;;;;;;;3.66;100.00;98983.41;1778500;80;21548;-68
2022/03/31 02:46:37;;;;;;;91.70;43.35;;;;;;;3.66;100.00;98982.10;1778828;80;21567;-69
2022/03/31 02:49:04;;;;;;;116.57;45.95;;;;;;;3.67;100.00;98974.26;1778665;80;21573;-69
2022/03/31 02:51:31;;;;;;;110.50;45.92;;;;;;;3.68;100.00;98967.30;1778834;80;20993;-68
2022/03/31 02:56:45;;;;;;;101.97;46.37;;;;;;;3.65;100.00;98967.39;1778765;80;21006;-68
2022/03/31 02:59:13;;;;;;;90.67;44.65;;;;;;;3.63;100.00;98969.18;1778711;80;21005;-68
2022/03/31 03:01:43;;;;;;;87.82;42.48;;;;;;;3.62;100.00;98972.69;1778889;80;21062;-69
2022/03/31 03:04:10;;;;;;;100.42;45.98;;;;;;;3.63;100.00;98969.18;1778902;80;21060;-69
2022/03/31 03:06:37;;;;;;;122.22;49.30;;;;;;;3.63;100.00;98965.27;1779004;80;21104;-68
2022/03/31 03:09:06;;;;;;;127.80;51.20;;;;;;;3.64;100.00;98967.00;1778777;80;20969;-69
2022/03/31 03:11:34;;;;;;;152.12;57.05;;;;;;;3.64;100.00;98963.09;1778780;80;21016;-68
2022/03/31 03:14:00;;;;;;;166.60;60.15;;;;;;;3.65;100.00;98964.78;1778703;80;21037;-68
2022/03/31 03:16:27;;;;;;;177.10;62.55;;;;;;;3.64;100.00;98960.48;1778859;80;21072;-69
2022/03/31 03:18:55;;;;;;;180.50;64.90;;;;;;;3.64;100.00;98961.79;1778830;80;21028;-68
2022/03/31 03:21:22;;;;;;;190.92;66.53;;;;;;;3.64;100.00;98957.89;1778424;80;21084;-69
2022/03/31 03:23:48;;;;;;;200.03;74.50;;;;;;;3.64;100.00;98956.59;1778372;80;21041;-68
2022/03/31 03:26:15;;;;;;;201.15;72.72;;;;;;;3.63;100.00;98953.56;1778781;80;21029;-69
2022/03/31 03:28:43;;;;;;;202.10;77.72;;;;;;;3.62;100.00;98949.26;1784217;80;22192;-69
2022/03/31 03:31:10;;;;;;;212.30;76.53;;;;;;;3.62;100.00;98944.05;1784416;80;21091;-69
2022/03/31 03:33:36;;;;;;;243.93;87.20;;;;;;;3.62;100.00;98937.55;1784383;80;21020;-70
2022/03/31 03:36:04;;;;;;;233.55;81.15;;;;;;;3.63;100.00;98943.14;1784054;80;21014;-69
2022/03/31 03:38:32;;;;;;;221.40;82.55;;;;;;;3.62;100.00;98937.55;1784573;80;21033;-68
2022/03/31 03:40:59;;;;;;;225.72;82.35;;;;;;;3.62;100.00;98938.39;1784451;80;21099;-68
2022/03/31 03:43:26;;;;;;;226.40;84.20;;;;;;;3.61;100.00;98930.61;1784598;80;21616;-69
2022/03/31 03:45:54;;;;;;;188.00;72.32;;;;;;;3.57;100.00;98937.22;1784407;80;21723;-69
2022/03/31 03:48:21;;;;;;;182.30;71.50;;;;;;;3.63;100.00;98937.48;1784537;80;21043;-68
2022/03/31 03:50:49;;;;;;;155.10;67.32;;;;;;;3.65;100.00;98936.14;1784395;80;21521;-69
2022/03/31 03:53:16;;;;;;;123.53;54.45;;;;;;;3.69;100.00;98929.97;1784795;80;21024;-69
2022/03/31 03:55:44;;;;;;;133.78;58.83;;;;;;;3.72;100.00;98924.20;1784618;80;21551;-69
2022/03/31 03:58:11;;;;;;;138.65;58.55;;;;;;;3.79;100.00;98926.19;1784288;80;21013;-69
2022/03/31 04:00:37;;;;;;;123.50;57.40;;;;;;;3.85;100.00;98927.78;1784632;80;21037;-69
2022/03/31 04:03:05;;;;;;;121.75;53.45;;;;;;;3.90;100.00;98921.52;1784559;80;21052;-69
2022/03/31 04:05:32;;;;;;;97.53;45.88;;;;;;;3.96;100.00;98920.52;1784548;80;21020;-70
2022/03/31 04:07:59;;;;;;;95.95;48.10;;;;;;;3.98;100.00;98913.05;1784414;80;23195;-70
2022/03/31 04:10:27;;;;;;;73.22;37.73;;;;;;;4.04;100.00;98917.20;1784536;80;21032;-69
2022/03/31 04:12:55;;;;;;;81.12;42.03;;;;;;;4.10;100.00;98909.67;1784700;80;21033;-69
2022/03/31 04:15:23;;;;;;;75.50;40.63;;;;;;;4.14;100.00;98903.45;1784725;80;21052;-69
2022/03/31 04:17:50;;;;;;;68.57;38.15;;;;;;;4.20;100.00;98901.97;1784679;80;20993;-69
2022/03/31 04:20:17;;;;;;;72.85;38.33;;;;;;;4.25;100.00;98896.16;1784755;80;21126;-70
2022/03/31 04:22:44;;;;;;;72.65;39.42;;;;;;;4.29;100.00;98897.78;1784639;80;21028;-69
2022/03/31 04:25:11;;;;;;;64.92;36.85;;;;;;;4.33;100.00;98894.64;1784675;80;21024;-69
2022/03/31 04:27:40;;;;;;;60.35;35.15;;;;;;;4.37;100.00;98894.92;1784394;80;21512;-70
2022/03/31 04:30:10;;;;;;;62.17;34.78;;;;;;;4.43;100.00;98887.38;1784559;80;21080;-69
2022/03/31 04:32:37;;;;;;;58.45;34.63;;;;;;;4.47;100.00;98883.77;1784948;80;21203;-69
2022/03/31 04:35:05;;;;;;;57.17;34.63;;;;;;;4.47;100.00;98873.34;1784471;80;21049;-69
2022/03/31 04:37:34;;;;;;;59.40;33.95;;;;;;;4.51;100.00;98879.72;1784548;80;21020;-70
2022/03/31 04:40:05;;;;;;;57.88;33.15;;;;;;;4.53;100.00;98874.43;1784479;80;21095;-70
2022/03/31 04:42:33;;;;;;;57.10;34.38;;;;;;;4.56;100.00;98875.66;1784695;80;21583;-70
2022/03/31 04:45:02;;;;;;;57.98;32.78;;;;;;;4.60;100.00;98870.72;1784484;80;21143;-69
2022/03/31 04:47:30;;;;;;;53.63;32.73;;;;;;;4.61;100.00;98869.83;1784931;80;21032;-69
2022/03/31 04:49:58;;;;;;;57.30;31.12;;;;;;;4.61;100.00;98865.92;1774326;80;21353;-69
2022/03/31 04:52:25;;;;;;;57.40;31.93;;;;;;;4.64;100.00;98868.41;1753435;81;21044;-70
2022/03/31 04:54:51;;;;;;;56.55;33.48;;;;;;;4.66;100.00;98872.28;1753508;81;21040;-70
2022/03/31 04:57:21;;;;;;;56.92;33.55;;;;;;;4.65;100.00;98863.62;1753599;81;21076;-69
2022/03/31 04:59:48;;;;;;;58.83;33.75;;;;;;;4.61;100.00;98847.66;1753524;81;21060;-69
2022/03/31 05:02:18;;;;;;;62.48;34.38;;;;;;;4.59;100.00;98856.83;1753575;80;21040;-69
2022/03/31 05:04:45;;;;;;;59.27;35.05;;;;;;;4.57;100.00;98851.27;1753462;81;21540;-70
2022/03/31 05:07:13;;;;;;;57.03;33.18;;;;;;;4.55;100.00;98849.16;1753590;81;21048;-69
2022/03/31 05:09:41;;;;;;;61.35;35.70;;;;;;;4.50;100.00;98843.25;1753528;81;21256;-69
2022/03/31 05:12:12;;;;;;;56.08;33.58;;;;;;;4.48;100.00;98837.23;1753334;81;21020;-69
2022/03/31 05:14:40;;;;;;;58.00;33.55;;;;;;;4.49;100.00;98832.44;1753537;81;21040;-69
2022/03/31 05:17:07;;;;;;;65.17;34.70;;;;;;;4.50;100.00;98838.04;1753624;81;21025;-68
2022/03/31 05:19:34;;;;;;;66.62;36.13;;;;;;;4.53;100.00;98832.71;1753233;81;21017;-70
2022/03/31 05:22:02;;;;;;;81.57;38.67;;;;;;;4.54;100.00;98831.83;1753322;81;21189;-70
2022/03/31 05:24:29;;;;;;;99.75;42.83;;;;;;;4.58;100.00;98830.83;1753408;81;21552;-70
2022/03/31 05:26:55;;;;;;;96.53;43.48;;;;;;;4.59;100.00;98829.91;1753233;81;21580;-70
2022/03/31 05:29:22;;;;;;;95.72;43.30;;;;;;;4.60;100.00;98831.60;1753684;81;21024;-69
2022/03/31 05:31:49;;;;;;;96.05;41.33;;;;;;;4.61;100.00;98836.77;1753594;81;21497;-68
2022/03/31 05:34:16;;;;;;;83.90;40.45;;;;;;;4.64;100.00;98834.52;1753387;81;21824;-70
2022/03/31 05:36:43;;;;;;;89.72;40.80;;;;;;;4.68;100.00;98837.88;1753251;81;21044;-68
2022/03/31 05:39:10;;;;;;;90.28;41.68;;;;;;;4.69;100.00;98837.81;1753469;81;21028;-69
2022/03/31 05:41:38;;;;;;;69.12;35.30;;;;;;;4.72;100.00;98839.03;1753294;81;21044;-69
2022/03/31 05:44:05;;;;;;;77.00;38.48;;;;;;;4.75;100.00;98841.53;1753623;81;21064;-69
2022/03/31 05:46:32;;;;;;;75.83;36.42;;;;;;;4.75;100.00;98843.29;1753418;81;21708;-69
2022/03/31 05:48:59;;;;;;;78.85;38.65;;;;;;;4.77;100.00;98842.33;1753188;81;21048;-68
2022/03/31 05:51:25;;;;;;;84.37;40.50;;;;;;;4.79;100.00;98840.98;1753491;81;21108;-71
2022/03/31 05:53:52;;;;;;;95.50;43.50;;;;;;;4.80;100.00;98834.39;1753323;81;21080;-71
2022/03/31 05:56:19;;;;;;;104.65;44.15;;;;;;;4.81;100.00;98833.50;1753452;81;21095;-69
2022/03/31 05:58:45;;;;;;;94.83;43.15;;;;;;;4.83;100.00;98826.48;1753423;81;21135;-70
2022/03/31 06:01:12;;;;;;;104.97;45.00;;;;;;;4.87;100.00;98828.97;1753665;80;21004;-69
2022/03/31 06:03:39;;;;;;;110.35;45.05;;;;;;;4.90;100.00;98826.25;1753506;81;21076;-70
2022/03/31 06:06:06;;;;;;;82.27;39.20;;;;;;;4.92;100.00;98823.14;1753448;81;21068;-70
2022/03/31 06:08:33;;;;;;;90.72;41.37;;;;;;;5.00;100.00;98820.66;1753493;81;21081;-69
2022/03/31 06:11:00;;;;;;;86.42;42.30;;;;;;;5.02;100.00;98812.80;1753401;81;21839;-72
2022/03/31 06:13:27;;;;;;;87.47;41.10;;;;;;;5.03;100.00;98811.87;1753369;81;21037;-69
2022/03/31 06:15:55;;;;;;;80.87;40.08;;;;;;;5.06;100.00;98816.97;1753505;81;21009;-70
2022/03/31 06:18:27;;;;;;;84.80;39.92;;;;;;;5.07;100.00;98810.87;1753411;81;21083;-69
2022/03/31 06:20:51;;;;;;;75.80;38.67;;;;;;;5.09;100.00;98814.27;1752461;81;21075;-70
2022/03/31 06:23:19;;;;;;;79.47;39.05;;;;;;;5.15;100.00;98805.36;1753466;81;21028;-69
2022/03/31 06:25:47;;;;;;;80.85;38.58;;;;;;;5.18;100.00;98794.38;1753260;81;21563;-69
2022/03/31 06:28:14;;;;;;;75.92;36.35;;;;;;;5.24;100.00;98792.85;1750904;81;21532;-69
2022/03/31 06:30:42;;;;;;;73.60;33.33;;;;;;;5.32;100.00;98788.64;1748022;82;21052;-69
2022/03/31 06:33:10;;;;;;;64.17;32.30;;;;;;;5.44;100.00;98786.02;1760050;80;21064;-68
2022/03/31 06:35:36;;;;;;;58.80;31.57;;;;;;;5.58;100.00;98782.43;1778575;80;21247;-70
2022/03/31 06:38:04;;;;;;;49.23;27.93;;;;;;;5.77;100.00;98782.56;1778711;80;21036;-70
2022/03/31 06:40:31;;;;;;;54.70;30.45;;;;;;;6.05;100.00;98775.84;1778614;80;21004;-70
2022/03/31 06:42:58;;;;;;;55.63;30.32;;;;;;;6.38;100.00;98774.06;1778564;80;21076;-70
2022/03/31 06:45:25;;;;;;;54.58;29.32;;;;;;;6.72;100.00;98769.57;1778805;80;21107;-70
2022/03/31 06:47:52;;;;;;;51.77;29.75;;;;;;;7.04;100.00;98772.56;1778754;80;21115;-70
2022/03/31 06:50:19;;;;;;;55.25;29.20;;;;;;;7.41;100.00;98779.20;1763980;80;21099;-69
2022/03/31 06:52:45;;;;;;;57.73;29.45;;;;;;;7.74;100.00;98774.18;1747837;82;21076;-70
2022/03/31 06:55:12;;;;;;;55.30;28.10;;;;;;;8.08;100.00;98782.59;1748029;82;21076;-69
2022/03/31 06:57:39;;;;;;;56.00;29.37;;;;;;;8.43;100.00;98782.67;1748034;82;21087;-69
2022/03/31 07:00:08;;;;;;;52.27;28.90;;;;;;;8.77;100.00;98786.23;1747977;82;21222;-69
2022/03/31 07:02:36;;;;;;;60.20;30.80;;;;;;;9.05;100.00;98788.75;1748130;82;21064;-71
2022/03/31 07:05:06;;;;;;;61.40;31.60;;;;;;;9.30;100.00;98779.95;1748073;82;21096;-68
2022/03/31 07:07:32;;;;;;;59.08;31.52;;;;;;;9.53;100.00;98783.97;1747964;82;21072;-68
2022/03/31 07:10:01;;;;;;;61.90;32.35;;;;;;;9.62;100.00;98780.00;1747884;82;21037;-69
2022/03/31 07:12:30;;;;;;;57.85;29.67;;;;;;;9.70;100.00;98784.83;1747830;82;21073;-69
2022/03/31 07:14:58;;;;;;;59.55;30.82;;;;;;;9.79;100.00;98785.16;1747984;82;21021;-70
2022/03/31 07:17:24;;;;;;;53.80;29.80;;;;;;;9.99;100.00;98788.48;1747879;82;21048;-69
2022/03/31 07:19:51;;;;;;;63.20;29.67;;;;;;;10.32;100.00;98796.74;1747952;82;21067;-69
2022/03/31 07:22:18;;;;;;;51.92;27.62;;;;;;;10.61;98.34;98796.39;1748257;82;21041;-68
2022/03/31 07:24:46;;;;;;;53.33;28.75;;;;;;;10.80;98.74;98777.71;1747838;82;21123;-69
2022/03/31 07:27:13;;;;;;;44.63;26.20;;;;;;;11.02;97.29;98783.39;1747773;82;20981;-69
2022/03/31 07:29:41;;;;;;;37.60;22.37;;;;;;;11.22;93.48;98791.86;1753206;81;21072;-67
2022/03/31 07:32:08;;;;;;;29.02;19.17;;;;;;;11.30;92.60;98786.98;1753365;81;21096;-68
2022/03/31 07:34:35;;;;;;;29.27;19.02;;;;;;;11.25;90.70;98792.54;1753482;81;21028;-70
2022/03/31 07:37:02;;;;;;;29.23;19.23;;;;;;;11.16;90.56;98789.59;1753615;81;21565;-69
2022/03/31 07:39:29;;;;;;;29.67;19.37;;;;;;;11.03;89.94;98784.23;1753355;81;21040;-70
2022/03/31 07:41:56;;;;;;;28.07;17.60;;;;;;;10.86;90.94;98783.94;1753381;81;21534;-70
2022/03/31 07:44:22;;;;;;;25.35;17.57;;;;;;;10.69;91.39;98786.23;1753459;81;21052;-69
2022/03/31 07:46:51;;;;;;;27.67;16.97;;;;;;;10.38;91.79;98775.34;1753425;81;21056;-71
2022/03/31 07:49:18;;;;;;;27.58;17.80;;;;;;;9.98;94.18;98769.67;1755430;80;21146;-69
2022/03/31 07:51:45;;;;;;;26.45;19.62;;;;;;;9.93;95.84;98757.26;1784783;80;21048;-70
2022/03/31 07:54:13;;;;;;;27.50;18.50;;;;;;;10.17;97.66;98761.14;1784579;80;21029;-70
2022/03/31 07:56:39;;;;;;;29.52;17.95;;;;;;;10.58;96.06;98755.73;1784726;80;21028;-70
2022/03/31 07:59:06;;;;;;;29.95;18.92;;;;;;;11.07;94.09;98751.03;1784825;80;21068;-68
2022/03/31 08:01:33;;;;;;;27.77;18.30;;;;;;;11.57;92.24;98751.45;1784690;80;21155;-69
2022/03/31 08:04:00;;;;;;;28.52;18.20;;;;;;;12.01;87.56;98748.27;1784804;80;21064;-68
2022/03/31 08:06:27;;;;;;;28.02;19.52;;;;;;;12.18;87.05;98748.02;1784976;80;21690;-68
2022/03/31 08:08:55;;;;;;;29.82;19.17;;;;;;;12.28;86.12;98746.45;1784688;80;21572;-69
2022/03/31 08:11:22;;;;;;;27.00;19.15;;;;;;;12.33;85.01;98743.06;1784423;80;21604;-69
2022/03/31 08:13:49;;;;;;;26.33;18.70;;;;;;;12.34;84.78;98738.14;1756351;80;21485;-69
2022/03/31 08:16:17;;;;;;;29.72;19.23;;;;;;;12.70;83.39;98735.77;1784499;80;21045;-69
2022/03/31 08:18:44;;;;;;;27.98;19.10;;;;;;;12.97;81.36;98731.23;1784708;80;21009;-68
2022/03/31 08:21:10;;;;;;;30.85;19.15;;;;;;;13.24;80.76;98736.88;1784522;80;21005;-68
2022/03/31 08:23:38;;;;;;;24.63;17.40;;;;;;;13.67;79.41;98730.39;1784626;80;21513;-69
2022/03/31 08:26:05;;;;;;;24.05;17.98;;;;;;;14.19;77.90;98719.94;1784557;80;21247;-70
2022/03/31 08:28:32;;;;;;;29.75;19.60;;;;;;;14.77;76.23;98718.23;1784499;80;21083;-71
2022/03/31 08:30:59;;;;;;;21.93;17.35;;;;;;;15.23;70.88;98722.61;1784535;80;21511;-70
2022/03/31 08:33:26;;;;;;;33.10;19.25;;;;;;;15.52;70.73;98715.47;1784427;80;21481;-70
2022/03/31 08:35:52;;;;;;;28.23;19.67;;;;;;;15.93;67.86;98719.28;1784506;80;21482;-71
2022/03/31 08:38:19;;;;;;;27.35;18.70;;;;;;;16.29;65.71;98714.08;1784692;80;21233;-70
2022/03/31 08:40:45;;;;;;;24.25;17.52;;;;;;;16.54;65.38;98710.22;1784578;80;21079;-70
2022/03/31 08:43:12;;;;;;;29.20;18.48;;;;;;;16.73;64.44;98716.63;1784575;80;21052;-70
2022/03/31 08:45:39;;;;;;;24.23;16.52;;;;;;;16.81;64.14;98722.16;1784506;80;21016;-69
2022/03/31 08:48:06;;;;;;;24.07;17.20;;;;;;;17.16;61.86;98723.14;1784645;80;21122;-69
2022/03/31 08:50:35;;;;;;;24.57;18.42;;;;;;;17.26;61.27;98717.85;1766537;80;21099;-70
2022/03/31 08:53:03;;;;;;;24.60;18.37;;;;;;;17.31;61.88;98719.61;1753359;81;21543;-69
2022/03/31 08:55:30;;;;;;;24.50;18.57;;;;;;;17.64;60.28;98715.45;1753466;81;21550;-69
2022/03/31 08:57:59;;;;;;;25.75;18.62;;;;;;;17.90;59.15;98722.46;1753512;81;21088;-69
2022/03/31 09:00:26;;;;;;;24.87;19.02;;;;;;;17.96;57.98;98726.75;1758480;80;21083;-70
2022/03/31 09:03:07;;;;;;;22.55;16.37;;;;;;;18.11;58.30;98716.55;1751501;80;21321;-70
2022/03/31 09:05:37;;;;;;;25.52;18.50;;;;;;;18.44;56.88;98711.77;1784751;80;21466;-69
2022/03/31 09:08:05;;;;;;;30.40;20.12;;;;;;;18.63;57.02;98713.11;1784889;80;21028;-69
2022/03/31 09:10:35;;;;;;;26.62;18.20;;;;;;;18.88;55.86;98711.32;1784646;80;21075;-70
2022/03/31 09:13:06;;;;;;;26.00;18.32;;;;;;;18.89;54.86;98702.32;1784677;80;21032;-70
2022/03/31 09:15:34;;;;;;;28.35;19.30;;;;;;;18.85;54.25;98704.45;1784485;79;21462;-70
2022/03/31 09:18:01;;;;;;;26.52;20.72;;;;;;;18.93;54.96;98700.55;1784363;80;21025;-69
2022/03/31 09:20:37;;;;;;;22.98;17.98;;;;;;;19.27;53.88;98697.34;1784786;80;21549;-69
2022/03/31 09:23:03;;;;;;;24.87;18.57;;;;;;;19.61;53.72;98692.77;1784645;80;21541;-71
2022/03/31 09:25:32;;;;;;;25.95;17.77;;;;;;;20.14;51.66;98693.34;1784596;80;21278;-70
2022/03/31 09:28:01;;;;;;;27.75;18.48;;;;;;;20.27;48.44;98693.80;1784585;80;21216;-71
2022/03/31 09:30:28;;;;;;;25.45;19.27;;;;;;;20.05;47.73;98694.27;1784192;80;21510;-69
2022/03/31 09:32:54;;;;;;;24.05;18.35;;;;;;;20.06;48.80;98689.25;1784817;80;21072;-70
2022/03/31 09:35:23;;;;;;;24.95;19.23;;;;;;;20.08;47.80;98688.60;1784783;80;20970;-69
2022/03/31 09:37:54;;;;;;;28.57;18.92;;;;;;;20.25;47.70;98690.44;1784823;80;21056;-68
2022/03/31 09:40:21;;;;;;;28.02;20.57;;;;;;;20.16;47.40;98683.85;1784792;80;21223;-69
2022/03/31 09:42:59;;;;;;;28.40;21.10;;;;;;;19.78;48.19;98690.64;1784494;80;20982;-69
2022/03/31 09:45:39;;;;;;;26.42;19.42;;;;;;;19.58;48.27;98683.70;1784432;80;21532;-70
2022/03/31 09:48:19;;;;;;;28.50;20.77;;;;;;;19.42;48.93;98681.70;1784423;80;21076;-69
2022/03/31 09:50:48;;;;;;;30.72;21.30;;;;;;;19.63;48.44;98684.95;1763707;80;21632;-69
2022/03/31 09:53:15;;;;;;;28.05;20.10;;;;;;;19.66;47.89;98687.81;1753195;81;21300;-70
2022/03/31 09:55:47;;;;;;;28.30;20.02;;;;;;;19.47;48.04;98680.25;1753296;81;21013;-70
2022/03/31 09:58:19;;;;;;;25.68;20.52;;;;;;;19.30;48.79;98679.70;1753459;81;21059;-69
2022/03/31 10:00:46;;;;;;;28.45;20.43;;;;;;;19.40;48.65;98675.17;1753507;81;21080;-70
2022/03/31 10:03:15;;;;;;;35.00;21.17;;;;;;;19.54;48.45;98674.33;1753597;81;20997;-71
2022/03/31 10:05:42;;;;;;;30.12;20.95;;;;;;;19.57;48.50;98672.19;1753750;81;21122;-70
2022/03/31 10:08:12;;;;;;;27.90;20.12;;;;;;;19.76;47.80;98675.76;1753235;81;21099;-70
2022/03/31 10:10:39;;;;;;;26.95;20.77;;;;;;;19.82;47.28;98675.99;1753615;81;21505;-70
2022/03/31 10:13:22;;;;;;;26.95;19.45;;;;;;;20.00;46.84;98680.52;1753347;81;21123;-70
2022/03/31 10:15:56;;;;;;;27.17;19.07;;;;;;;20.14;46.47;98676.48;1753447;81;21055;-70
2022/03/31 10:18:22;;;;;;;31.95;20.88;;;;;;;20.36;46.32;98667.13;1753900;81;21284;-69
2022/03/31 10:20:58;;;;;;;29.57;20.68;;;;;;;20.59;45.52;98662.15;1753519;81;21033;-69
2022/03/31 10:26:25;;;;;;;25.08;19.30;;;;;;;20.77;44.30;98670.97;1753576;81;21628;-71
2022/03/31 10:29:00;;;;;;;26.00;19.17;;;;;;;20.80;44.67;98664.45;1752341;81;21077;-69
2022/03/31 10:31:39;;;;;;;26.95;20.15;;;;;;;20.80;42.88;98661.78;1747819;82;21225;-70
2022/03/31 10:34:07;;;;;;;28.55;19.42;;;;;;;20.42;43.75;98666.52;1747769;82;21029;-70
2022/03/31 10:36:39;;;;;;;30.30;21.62;;;;;;;20.07;44.92;98661.55;1747872;82;21068;-70
2022/03/31 10:39:23;;;;;;;27.67;19.30;;;;;;;19.83;45.18;98656.33;1747988;82;21051;-70
2022/03/31 10:42:05;;;;;;;32.13;22.20;;;;;;;19.84;45.69;98662.00;1747828;82;21044;-70
2022/03/31 10:44:31;;;;;;;29.98;22.15;;;;;;;19.96;45.52;98655.09;1748095;82;21588;-70
2022/03/31 10:47:04;;;;;;;27.80;21.60;;;;;;;20.04;45.49;98659.20;1747804;82;21551;-69
2022/03/31 10:49:34;;;;;;;30.37;20.97;;;;;;;20.09;44.83;98650.21;1752714;80;21028;-70
2022/03/31 10:52:17;;;;;;;26.80;20.23;;;;;;;20.01;44.33;98648.79;1778656;80;21005;-69
2022/03/31 10:54:44;;;;;;;27.58;20.92;;;;;;;20.06;44.52;98644.69;1779200;80;21044;-71
2022/03/31 10:57:13;;;;;;;27.75;20.25;;;;;;;19.96;44.55;98650.58;1778574;80;21485;-71
2022/03/31 10:59:46;;;;;;;29.50;20.70;;;;;;;19.77;44.42;98654.75;1778967;80;21573;-71
2022/03/31 11:02:14;;;;;;;;;;;;;;;19.87;44.63;98649.66;1781252;80;21510;-70
2022/03/31 11:04:51;;;;;;;34.27;20.90;;;;;;;19.95;45.10;98648.09;1779020;80;20162;-70
2022/03/31 11:07:24;;;;;;;29.15;20.68;;;;;;;20.12;44.42;98651.23;1778830;80;21044;-69
2022/03/31 11:10:12;;;;;;;30.77;21.05;;;;;;;20.55;44.23;98644.23;1778629;80;21084;-68
2022/03/31 11:12:41;;;;;;;28.02;20.52;;;;;;;21.08;43.31;98644.56;1778481;80;21076;-71
2022/03/31 11:15:16;;;;;;;29.70;20.82;;;;;;;21.47;41.35;98641.41;1778559;80;21024;-70
2022/03/31 11:17:42;;;;;;;26.50;19.98;;;;;;;21.63;41.45;98642.46;1778793;80;21041;-70
2022/03/31 11:20:22;;;;;;;24.82;18.10;;;;;;;21.85;40.70;98639.13;1778546;80;21588;-70
2022/03/31 11:22:59;;;;;;;27.32;18.73;;;;;;;21.96;39.71;98629.44;1778537;80;21131;-70
2022/03/31 11:25:27;;;;;;;27.67;20.12;;;;;;;22.00;37.83;98634.80;1778670;80;21496;-70
2022/03/31 11:27:56;;;;;;;30.92;22.60;;;;;;;21.67;38.30;98635.75;1778550;80;21024;-70
2022/03/31 11:30:25;;;;;;;27.65;19.37;;;;;;;21.49;38.68;98639.41;1782670;80;20985;-73
2022/03/31 11:32:56;;;;;;;24.43;18.93;;;;;;;21.35;38.34;98640.00;1784908;80;21020;-70
2022/03/31 11:35:26;;;;;;;30.82;20.32;;;;;;;21.02;38.42;98634.48;1784763;80;21086;-69
2022/03/31 11:38:00;;;;;;;28.45;20.15;;;;;;;20.68;38.37;98640.67;1784692;80;21278;-70
2022/03/31 11:42:45;;;;;;;29.85;19.67;;;;;;;20.64;39.40;98642.48;1796652;79;22148;-70